Sirius — JD2507 — position and weather

sailwx.info

Track history (hours):
 
Tides and Currents Weather Stations Pressure Air Temp Water Temp Dewpoint Dewpoint Depression Visibility Wind Speed Wind Dir Waves Ship Positions

Sirius

Last reported at 2018-Feb-23 00:07 UTC. Time now 2018-Feb-24 06:08 UTC.
Position N 34°37' E 134°32'.

Length 38 m; draft 2 m.

Type: Other ship. MMSI: 431000347.

Date/timePositionNaut miles runAvg speedWind from/ knotsBaromVisibWave heightAir tempDewpointWater temp
2018-Feb-23 00:07N 34°37' E 134°32'113.8
2018-Feb-23 00:01N 34°37' E 134°34'713.8
2018-Feb-22 23:30N 34°38' E 134°43'713.3
2018-Feb-22 23:00N 34°38' E 134°51'611.8
2018-Feb-22 22:30N 34°37' E 134°58'5 9.5
2018-Feb-22 22:00N 34°36' E 135°03'4 7.2
2018-Feb-22 21:31N 34°35' E 135°08'4 8.9
2018-Feb-22 21:01N 34°38' E 135°03'0 0.0
2018-Feb-22 17:45N 34°38' E 135°03'0 1.9
2018-Feb-22 17:30N 34°37' E 135°03'1 2.2
2018-Feb-22 17:00N 34°37' E 135°01'510.9
2018-Feb-22 16:30N 34°35' E 135°07'4 8.5
2018-Feb-22 16:00N 34°38' E 135°10'3 0.3
2018-Feb-22 06:20N 34°40' E 135°12'412.2
2018-Feb-22 06:00N 34°38' E 135°08'714.6
2018-Feb-22 05:30N 34°37' E 134°60'0 0.7
2018-Feb-22 05:01N 34°38' E 134°60'510.1
2018-Feb-22 04:30N 34°35' E 135°05'1 3.0
2018-Feb-22 04:01N 34°35' E 135°04'2 1.2
2018-Feb-22 01:53N 34°36' E 135°01'3 6.7
2018-Feb-22 01:30N 34°37' E 134°58'510.0
2018-Feb-22 01:00N 34°36' E 135°04'5 9.8
2018-Feb-22 00:30N 34°37' E 135°10'4 8.6
2018-Feb-22 00:00N 34°40' E 135°12'0 0.0
2018-Feb-21 23:30N 34°40' E 135°12'0 0.0
2018-Feb-21 06:03N 34°40' E 135°12'0 0.5
2018-Feb-21 06:00N 34°40' E 135°12'917.4
2018-Feb-21 05:30N 34°32' E 135°08'1019.2
2018-Feb-21 05:01N 34°24' E 135°04'918.0
2018-Feb-21 04:31N 34°16' E 134°58'714.2
2018-Feb-21 04:01N 34°23' E 135°00'714.3
2018-Feb-21 03:30N 34°29' E 135°03'510.6
2018-Feb-21 03:01N 34°34' E 135°06'4 8.5
2018-Feb-21 02:30N 34°36' E 135°02'510.5
2018-Feb-21 02:00N 34°36' E 134°56'612.9
2018-Feb-21 01:30N 34°33' E 134°48'612.2
2018-Feb-21 01:00N 34°36' E 134°42'714.2
2018-Feb-21 00:30N 34°43' E 134°41'3 5.4
2018-Feb-20 23:58N 34°46' E 134°41'0 0.7
2018-Feb-20 23:27N 34°45' E 134°41'1 2.7
2018-Feb-20 23:00N 34°46' E 134°42'0 0.0
2018-Feb-20 03:36N 34°47' E 134°42'111.0
2018-Feb-20 03:30N 34°46' E 134°42'2 2.9
2018-Feb-20 02:53N 34°44' E 134°41'3 8.7
2018-Feb-20 02:30N 34°41' E 134°41'510.5
2018-Feb-20 02:01N 34°36' E 134°42'511.0
2018-Feb-20 01:30N 34°34' E 134°48'816.1
2018-Feb-20 01:00N 34°37' E 134°58'612.3
2018-Feb-20 00:31N 34°35' E 135°05'4 7.9
2018-Feb-20 00:00N 34°34' E 135°09'5 9.6
2018-Feb-19 23:30N 34°30' E 135°07'713.7
2018-Feb-19 23:01N 34°23' E 135°04'713.5
2018-Feb-19 22:30N 34°18' E 134°59'510.6
2018-Feb-19 22:00N 34°12' E 134°60'2 3.4
2018-Feb-19 21:31N 34°11' E 134°58'713.6
2018-Feb-19 21:00N 34°18' E 134°57'4 7.6
2018-Feb-19 20:30N 34°21' E 134°54'0 0.0
2018-Feb-19 07:32N 34°21' E 134°54'0 0.0
2018-Feb-19 07:31N 34°21' E 134°54'611.6
2018-Feb-19 07:01N 34°16' E 134°58'714.3
2018-Feb-19 06:30N 34°23' E 135°00'815.4
2018-Feb-19 06:01N 34°30' E 135°04'4 8.5
2018-Feb-19 05:30N 34°34' E 135°06'713.8
2018-Feb-19 05:00N 34°36' E 134°58'815.9
2018-Feb-19 04:30N 34°34' E 134°49'612.9
2018-Feb-19 04:00N 34°36' E 134°42'713.4
2018-Feb-19 03:30N 34°43' E 134°41'3 5.4
2018-Feb-19 02:59N 34°46' E 134°41'0 0.4
2018-Feb-19 02:30N 34°46' E 134°41'1 0.1
2018-Feb-18 03:47N 34°47' E 134°42'1 4.0
2018-Feb-18 03:30N 34°46' E 134°41'2 3.3
2018-Feb-18 03:00N 34°44' E 134°41'4 8.4
2018-Feb-18 02:30N 34°40' E 134°41'612.3
2018-Feb-18 02:00N 34°34' E 134°43'816.0
2018-Feb-18 01:30N 34°35' E 134°52'714.5
2018-Feb-18 01:00N 34°37' E 135°00'511.0
2018-Feb-18 00:30N 34°35' E 135°06'2 3.4
2018-Feb-18 00:01N 34°33' E 135°07'4 8.7
2018-Feb-17 23:30N 34°29' E 135°06'611.3
2018-Feb-17 23:01N 34°24' E 135°03'612.3
2018-Feb-17 22:30N 34°19' E 134°60'611.4
2018-Feb-17 22:00N 34°13' E 134°60'2 4.0
2018-Feb-17 21:30N 34°11' E 135°01'612.7
2018-Feb-17 21:01N 34°17' E 134°58'612.9
2018-Feb-17 20:30N 34°23' E 135°01'713.4
2018-Feb-17 20:00N 34°29' E 135°04'713.7
2018-Feb-17 19:31N 34°35' E 135°09'611.7
2018-Feb-17 19:00N 34°40' E 135°12'0 0.0
2018-Feb-16 22:00N 34°40' E 135°12'611.4
2018-Feb-16 21:31N 34°37' E 135°07'714.0
2018-Feb-16 21:01N 34°37' E 134°58'4 8.9
2018-Feb-16 20:31N 34°36' E 135°04'4 7.5
2018-Feb-16 20:00N 34°35' E 135°08'612.8
2018-Feb-16 19:31N 34°40' E 135°12'0 0.0
2018-Feb-16 05:58N 34°40' E 135°12'714.5
2018-Feb-16 05:30N 34°36' E 135°06'612.3
2018-Feb-16 05:00N 34°37' E 134°59'2 3.5
2018-Feb-16 04:31N 34°38' E 135°01'2 0.3
2018-Feb-15 21:10N 34°38' E 135°03'1 6.8
2018-Feb-15 21:00N 34°38' E 135°02'3 5.3
2018-Feb-15 20:30N 34°38' E 134°59'5 9.7
2018-Feb-15 20:00N 34°36' E 135°04'4 8.9
2018-Feb-15 19:30N 34°35' E 135°09'1 1.5
2018-Feb-15 19:01N 34°35' E 135°10'611.3
2018-Feb-15 18:30N 34°40' E 135°12'0 0.0
2018-Feb-15 02:13N 34°40' E 135°12'210.1
2018-Feb-15 02:00N 34°39' E 135°11'715.0
2018-Feb-15 01:31N 34°38' E 135°02'1 1.3
2018-Feb-15 01:00N 34°37' E 135°01'510.4
2018-Feb-15 00:30N 34°35' E 135°07'3 5.5
2018-Feb-15 00:00N 34°35' E 135°04'4 7.7
2018-Feb-14 23:30N 34°37' E 134°60'2 5.0
2018-Feb-14 23:00N 34°37' E 135°03'4 8.2
2018-Feb-14 22:30N 34°34' E 135°07'4 7.6
2018-Feb-14 22:00N 34°30' E 135°06'612.7
2018-Feb-14 21:30N 34°25' E 135°03'713.8
2018-Feb-14 21:01N 34°18' E 134°60'713.7
2018-Feb-14 20:30N 34°11' E 134°60'1 3.0
2018-Feb-14 20:00N 34°11' E 134°58'714.0
2018-Feb-14 19:30N 34°18' E 134°58'4 7.6
2018-Feb-14 19:01N 34°21' E 134°54'0 0.0
2018-Feb-14 18:31N 34°21' E 134°54'0 0.0
2018-Feb-14 05:09N 34°21' E 134°54'0 3.2
2018-Feb-14 05:01N 34°21' E 134°54'917.4
2018-Feb-14 04:30N 34°28' E 135°00'815.3
2018-Feb-14 04:01N 34°36' E 135°03'5 9.0
2018-Feb-14 03:31N 34°36' E 134°57'3 6.9
2018-Feb-14 03:00N 34°38' E 135°01'2 0.8
2018-Feb-14 00:15N 34°38' E 135°03'2 6.6
2018-Feb-14 00:01N 34°38' E 135°01'1 2.3
2018-Feb-13 23:30N 34°37' E 135°02'611.4
2018-Feb-13 23:00N 34°34' E 135°08'510.6
2018-Feb-13 22:30N 34°39' E 135°11'2 3.7
2018-Feb-13 22:00N 34°40' E 135°12'0 0.0
2018-Feb-13 08:52N 34°40' E 135°12'512.9
2018-Feb-13 08:31N 34°37' E 135°08'612.6
2018-Feb-13 08:00N 34°37' E 135°00'3 5.0
2018-Feb-13 07:30N 34°37' E 134°57'5 9.5
2018-Feb-13 07:00N 34°38' E 135°03'0 0.0
2018-Feb-13 06:31N 34°38' E 135°03'0 0.0
2018-Feb-13 04:16N 34°38' E 135°03'2 7.3
2018-Feb-13 04:00N 34°36' E 135°04'2 3.8
2018-Feb-13 03:31N 34°34' E 135°04'815.0
2018-Feb-13 03:01N 34°36' E 135°13'815.0
2018-Feb-13 02:30N 34°34' E 135°22'3 6.7
2018-Feb-13 02:01N 34°33' E 135°26'3 6.0
2018-Feb-13 01:30N 34°33' E 135°22'4 7.4
2018-Feb-13 01:01N 34°34' E 135°18'2 3.1
2018-Feb-13 00:30N 34°35' E 135°18'  
Track history (hours):
 
Tides and Currents Weather Stations Pressure Air Temp Water Temp Dewpoint Dewpoint Depression Visibility Wind Speed Wind Dir Waves Ship Positions

Sirius

Last reported at 2018-Feb-23 00:07 UTC. Time now 2018-Feb-24 06:08 UTC.
Position N 34°37' E 134°32'.

Length 38 m; draft 2 m.

Type: Other ship. MMSI: 431000347.

Date/timePositionNaut miles runAvg speedWind from/ knotsBaromVisibWave heightAir tempDewpointWater temp
2018-Feb-23 00:07N 34°37' E 134°32'113.8
2018-Feb-23 00:01N 34°37' E 134°34'713.8
2018-Feb-22 23:30N 34°38' E 134°43'713.3
2018-Feb-22 23:00N 34°38' E 134°51'611.8
2018-Feb-22 22:30N 34°37' E 134°58'5 9.5
2018-Feb-22 22:00N 34°36' E 135°03'4 7.2
2018-Feb-22 21:31N 34°35' E 135°08'4 8.9
2018-Feb-22 21:01N 34°38' E 135°03'0 0.0
2018-Feb-22 17:45N 34°38' E 135°03'0 1.9
2018-Feb-22 17:30N 34°37' E 135°03'1 2.2
2018-Feb-22 17:00N 34°37' E 135°01'510.9
2018-Feb-22 16:30N 34°35' E 135°07'4 8.5
2018-Feb-22 16:00N 34°38' E 135°10'3 0.3
2018-Feb-22 06:20N 34°40' E 135°12'412.2
2018-Feb-22 06:00N 34°38' E 135°08'714.6
2018-Feb-22 05:30N 34°37' E 134°60'0 0.7
2018-Feb-22 05:01N 34°38' E 134°60'510.1
2018-Feb-22 04:30N 34°35' E 135°05'1 3.0
2018-Feb-22 04:01N 34°35' E 135°04'2 1.2
2018-Feb-22 01:53N 34°36' E 135°01'3 6.7
2018-Feb-22 01:30N 34°37' E 134°58'510.0
2018-Feb-22 01:00N 34°36' E 135°04'5 9.8
2018-Feb-22 00:30N 34°37' E 135°10'4 8.6
2018-Feb-22 00:00N 34°40' E 135°12'0 0.0
2018-Feb-21 23:30N 34°40' E 135°12'0 0.0
2018-Feb-21 06:03N 34°40' E 135°12'0 0.5
2018-Feb-21 06:00N 34°40' E 135°12'917.4
2018-Feb-21 05:30N 34°32' E 135°08'1019.2
2018-Feb-21 05:01N 34°24' E 135°04'918.0
2018-Feb-21 04:31N 34°16' E 134°58'714.2
2018-Feb-21 04:01N 34°23' E 135°00'714.3
2018-Feb-21 03:30N 34°29' E 135°03'510.6
2018-Feb-21 03:01N 34°34' E 135°06'4 8.5
2018-Feb-21 02:30N 34°36' E 135°02'510.5
2018-Feb-21 02:00N 34°36' E 134°56'612.9
2018-Feb-21 01:30N 34°33' E 134°48'612.2
2018-Feb-21 01:00N 34°36' E 134°42'714.2
2018-Feb-21 00:30N 34°43' E 134°41'3 5.4
2018-Feb-20 23:58N 34°46' E 134°41'0 0.7
2018-Feb-20 23:27N 34°45' E 134°41'1 2.7
2018-Feb-20 23:00N 34°46' E 134°42'0 0.0
2018-Feb-20 03:36N 34°47' E 134°42'111.0
2018-Feb-20 03:30N 34°46' E 134°42'2 2.9
2018-Feb-20 02:53N 34°44' E 134°41'3 8.7
2018-Feb-20 02:30N 34°41' E 134°41'510.5
2018-Feb-20 02:01N 34°36' E 134°42'511.0
2018-Feb-20 01:30N 34°34' E 134°48'816.1
2018-Feb-20 01:00N 34°37' E 134°58'612.3
2018-Feb-20 00:31N 34°35' E 135°05'4 7.9
2018-Feb-20 00:00N 34°34' E 135°09'5 9.6
2018-Feb-19 23:30N 34°30' E 135°07'713.7
2018-Feb-19 23:01N 34°23' E 135°04'713.5
2018-Feb-19 22:30N 34°18' E 134°59'510.6
2018-Feb-19 22:00N 34°12' E 134°60'2 3.4
2018-Feb-19 21:31N 34°11' E 134°58'713.6
2018-Feb-19 21:00N 34°18' E 134°57'4 7.6
2018-Feb-19 20:30N 34°21' E 134°54'0 0.0
2018-Feb-19 07:32N 34°21' E 134°54'0 0.0
2018-Feb-19 07:31N 34°21' E 134°54'611.6
2018-Feb-19 07:01N 34°16' E 134°58'714.3
2018-Feb-19 06:30N 34°23' E 135°00'815.4
2018-Feb-19 06:01N 34°30' E 135°04'4 8.5
2018-Feb-19 05:30N 34°34' E 135°06'713.8
2018-Feb-19 05:00N 34°36' E 134°58'815.9
2018-Feb-19 04:30N 34°34' E 134°49'612.9
2018-Feb-19 04:00N 34°36' E 134°42'713.4
2018-Feb-19 03:30N 34°43' E 134°41'3 5.4
2018-Feb-19 02:59N 34°46' E 134°41'0 0.4
2018-Feb-19 02:30N 34°46' E 134°41'1 0.1
2018-Feb-18 03:47N 34°47' E 134°42'1 4.0
2018-Feb-18 03:30N 34°46' E 134°41'2 3.3
2018-Feb-18 03:00N 34°44' E 134°41'4 8.4
2018-Feb-18 02:30N 34°40' E 134°41'612.3
2018-Feb-18 02:00N 34°34' E 134°43'816.0
2018-Feb-18 01:30N 34°35' E 134°52'714.5
2018-Feb-18 01:00N 34°37' E 135°00'511.0
2018-Feb-18 00:30N 34°35' E 135°06'2 3.4
2018-Feb-18 00:01N 34°33' E 135°07'4 8.7
2018-Feb-17 23:30N 34°29' E 135°06'611.3
2018-Feb-17 23:01N 34°24' E 135°03'612.3
2018-Feb-17 22:30N 34°19' E 134°60'611.4
2018-Feb-17 22:00N 34°13' E 134°60'2 4.0
2018-Feb-17 21:30N 34°11' E 135°01'612.7
2018-Feb-17 21:01N 34°17' E 134°58'612.9
2018-Feb-17 20:30N 34°23' E 135°01'713.4
2018-Feb-17 20:00N 34°29' E 135°04'713.7
2018-Feb-17 19:31N 34°35' E 135°09'611.7
2018-Feb-17 19:00N 34°40' E 135°12'0 0.0
2018-Feb-16 22:00N 34°40' E 135°12'611.4
2018-Feb-16 21:31N 34°37' E 135°07'714.0
2018-Feb-16 21:01N 34°37' E 134°58'4 8.9
2018-Feb-16 20:31N 34°36' E 135°04'4 7.5
2018-Feb-16 20:00N 34°35' E 135°08'612.8
2018-Feb-16 19:31N 34°40' E 135°12'0 0.0
2018-Feb-16 05:58N 34°40' E 135°12'714.5
2018-Feb-16 05:30N 34°36' E 135°06'612.3
2018-Feb-16 05:00N 34°37' E 134°59'2 3.5
2018-Feb-16 04:31N 34°38' E 135°01'2 0.3
2018-Feb-15 21:10N 34°38' E 135°03'1 6.8
2018-Feb-15 21:00N 34°38' E 135°02'3 5.3
2018-Feb-15 20:30N 34°38' E 134°59'5 9.7
2018-Feb-15 20:00N 34°36' E 135°04'4 8.9
2018-Feb-15 19:30N 34°35' E 135°09'1 1.5
2018-Feb-15 19:01N 34°35' E 135°10'611.3
2018-Feb-15 18:30N 34°40' E 135°12'0 0.0
2018-Feb-15 02:13N 34°40' E 135°12'210.1
2018-Feb-15 02:00N 34°39' E 135°11'715.0
2018-Feb-15 01:31N 34°38' E 135°02'1 1.3
2018-Feb-15 01:00N 34°37' E 135°01'510.4
2018-Feb-15 00:30N 34°35' E 135°07'3 5.5
2018-Feb-15 00:00N 34°35' E 135°04'4 7.7
2018-Feb-14 23:30N 34°37' E 134°60'2 5.0
2018-Feb-14 23:00N 34°37' E 135°03'4 8.2
2018-Feb-14 22:30N 34°34' E 135°07'4 7.6
2018-Feb-14 22:00N 34°30' E 135°06'612.7
2018-Feb-14 21:30N 34°25' E 135°03'713.8
2018-Feb-14 21:01N 34°18' E 134°60'713.7
2018-Feb-14 20:30N 34°11' E 134°60'1 3.0
2018-Feb-14 20:00N 34°11' E 134°58'714.0
2018-Feb-14 19:30N 34°18' E 134°58'4 7.6
2018-Feb-14 19:01N 34°21' E 134°54'0 0.0
2018-Feb-14 18:31N 34°21' E 134°54'0 0.0
2018-Feb-14 05:09N 34°21' E 134°54'0 3.2
2018-Feb-14 05:01N 34°21' E 134°54'917.4
2018-Feb-14 04:30N 34°28' E 135°00'815.3
2018-Feb-14 04:01N 34°36' E 135°03'5 9.0
2018-Feb-14 03:31N 34°36' E 134°57'3 6.9
2018-Feb-14 03:00N 34°38' E 135°01'2 0.8
2018-Feb-14 00:15N 34°38' E 135°03'2 6.6
2018-Feb-14 00:01N 34°38' E 135°01'1 2.3
2018-Feb-13 23:30N 34°37' E 135°02'611.4
2018-Feb-13 23:00N 34°34' E 135°08'510.6
2018-Feb-13 22:30N 34°39' E 135°11'2 3.7
2018-Feb-13 22:00N 34°40' E 135°12'0 0.0
2018-Feb-13 08:52N 34°40' E 135°12'512.9
2018-Feb-13 08:31N 34°37' E 135°08'612.6
2018-Feb-13 08:00N 34°37' E 135°00'3 5.0
2018-Feb-13 07:30N 34°37' E 134°57'5 9.5
2018-Feb-13 07:00N 34°38' E 135°03'0 0.0
2018-Feb-13 06:31N 34°38' E 135°03'0 0.0
2018-Feb-13 04:16N 34°38' E 135°03'2 7.3
2018-Feb-13 04:00N 34°36' E 135°04'2 3.8
2018-Feb-13 03:31N 34°34' E 135°04'815.0
2018-Feb-13 03:01N 34°36' E 135°13'815.0
2018-Feb-13 02:30N 34°34' E 135°22'3 6.7
2018-Feb-13 02:01N 34°33' E 135°26'3 6.0
2018-Feb-13 01:30N 34°33' E 135°22'4 7.4
2018-Feb-13 01:01N 34°34' E 135°18'2 3.1
2018-Feb-13 00:30N 34°35' E 135°18'  

Dump ship's entire track history